KBRL/BRL METAR and TAF weather

Enter ICAO airport designator
Station Type Date Time Source
KBRL METAR 2018/01/23 01:53 UTC NOAA

KBRL 230153Z AUTO 18004KT 9SM OVC012 03/01 A2951 RMK AO2 SLP994 T00280011 $


Station Type Date Time Source
KBRL Decoded METAR 2018/01/23 01:53 UTC NOAA

BURLINGTON REGIONAL AIRPORT, IA, United States (KBRL) 40-46N 91-08W 211M
Jan 22, 2018 - 08:53 PM EST / 2018.01.23 0153 UTC
Wind: from the S (180 degrees) at 5 MPH (4 KT):0
Visibility: 9 mile(s):0
Sky conditions: overcast
Temperature: 37.0 F (2.8 C)
Dew Point: 34.0 F (1.1 C)
Relative Humidity: 88%
Pressure (altimeter): 29.51 in. Hg (999 hPa)
ob: KBRL 230153Z AUTO 18004KT 9SM OVC012 03/01 A2951 RMK AO2 SLP994 T00280011
cycle: 2

Station Type Date Time Source
KBRL TAF 2018/01/23 01:58 UTC NOAA

TAF
AMD KBRL 230056Z 2301/2324 21010KT P6SM -RADZ OVC025
FM230400 19004KT 6SM -RASN BKN015
FM230800 31012KT P6SM OVC006
FM231200 34016G25KT P6SM OVC015


Example: see airport list